Gorno-Altaysk, Russia
Current Conditions -  °F | °C
As of 4:00 PM on Friday 19 Dec 2014 (Local Time) from UNBB Reporting Station
Scattered Clouds Scattered Clouds  
Wind Chill: -19°   Ceiling: Unl
Heat Index: -19°   Visibility: 6mi
Dew Point: -21°   Wind: 0mph
Humidity: 85%   Direction: NA
Pressure: 30.59"   Gusts: NA
Location:  51.96°N, 85.96°E
Report Text: UNBB 190900Z 00000MPS 9999 FEW010 SCT200 M19/M21 Q1036 NOSIGRMK QFE754/1006 24420357
Loading
Personal Weather Stations






























Interactive Weather Map New forecast layout! Learn more

10-Day Weather Forecast

Advertisements
Track Severe Weather on mobile